Time;durP1;ratioP1;P1;durP2;ratioP2;P2;SDS_P1;SDS_P2;PMS_P1;PMS_P2;Temp;Humidity;BMP_temperature;BMP_pressure;BME280_temperature;BME280_humidity;BME280_pressure;Samples;Min_cycle;Max_cycle;Signal;HPM_P1;HPM_P2
2021/10/18 00:00:33;;;;;;;11.88;5.45;;;23.30;59.40;;;;;;5222760;28;20079;-82
2021/10/18 00:03:05;;;;;;;7.43;5.10;;;23.30;59.40;;;;;;5208051;28;20052;-81
2021/10/18 00:05:38;;;;;;;9.10;5.37;;;23.30;59.50;;;;;;5226298;28;20048;-81
2021/10/18 00:08:11;;;;;;;10.52;4.97;;;23.30;59.50;;;;;;5228574;28;20051;-81
2021/10/18 00:10:44;;;;;;;6.90;4.93;;;23.30;59.50;;;;;;5227121;28;20040;-80
2021/10/18 00:13:38;;;;;;;8.90;4.97;;;23.30;59.60;;;;;;5211692;28;20517;-80
2021/10/18 00:16:10;;;;;;;10.23;5.32;;;23.30;59.70;;;;;;5205625;28;20306;-80
2021/10/18 00:18:43;;;;;;;9.55;4.95;;;23.30;60.40;;;;;;5216850;28;20049;-81
2021/10/18 00:21:15;;;;;;;9.23;5.20;;;23.30;59.70;;;;;;5220035;28;20525;-81
2021/10/18 00:23:48;;;;;;;9.15;4.63;;;23.30;59.70;;;;;;5199418;28;20048;-81
2021/10/18 00:26:21;;;;;;;6.90;4.67;;;23.20;59.60;;;;;;5201092;28;20083;-81
2021/10/18 00:28:54;;;;;;;10.00;5.00;;;23.30;59.70;;;;;;5214904;28;20049;-81
2021/10/18 00:31:27;;;;;;;6.10;4.60;;;23.30;59.60;;;;;;5208389;28;20048;-81
2021/10/18 00:34:00;;;;;;;5.72;4.22;;;23.30;59.80;;;;;;5220008;28;20229;-81
2021/10/18 00:36:32;;;;;;;6.43;4.20;;;23.20;59.70;;;;;;5221518;28;20414;-81
2021/10/18 00:39:05;;;;;;;8.80;5.00;;;23.30;59.80;;;;;;5222324;28;20056;-81
2021/10/18 00:41:40;;;;;;;6.57;4.55;;;23.20;59.80;;;;;;5238319;28;20059;-81
2021/10/18 00:44:13;;;;;;;6.30;4.47;;;23.20;59.80;;;;;;5223866;28;20159;-81
2021/10/18 00:46:45;;;;;;;6.73;4.60;;;23.20;59.70;;;;;;5210908;28;20055;-80
2021/10/18 00:49:18;;;;;;;6.43;4.70;;;23.20;59.70;;;;;;5215175;28;20303;-81
2021/10/18 00:51:51;;;;;;;9.18;4.55;;;23.20;59.80;;;;;;5193983;28;20127;-80
2021/10/18 00:54:24;;;;;;;5.53;4.50;;;23.20;59.80;;;;;;5212520;28;20055;-81
2021/10/18 00:56:56;;;;;;;8.25;4.75;;;23.20;59.80;;;;;;5222507;28;20052;-81
2021/10/18 00:59:31;;;;;;;6.28;4.50;;;23.20;59.80;;;;;;5237674;28;20040;-81
2021/10/18 01:02:04;;;;;;;7.03;4.50;;;23.20;59.80;;;;;;5223792;28;20528;-81
2021/10/18 01:04:36;;;;;;;7.82;4.38;;;23.20;59.80;;;;;;5222959;28;20055;-81
2021/10/18 01:07:09;;;;;;;4.50;4.00;;;23.20;59.80;;;;;;5223120;28;20056;-81
2021/10/18 01:09:43;;;;;;;11.27;4.20;;;23.20;59.70;;;;;;5206646;28;20055;-81
2021/10/18 01:12:16;;;;;;;10.57;4.00;;;23.20;59.80;;;;;;5205116;28;20052;-81
2021/10/18 01:14:49;;;;;;;10.45;4.10;;;23.20;59.70;;;;;;5229690;28;20420;-81
2021/10/18 01:17:22;;;;;;;6.72;4.53;;;23.20;59.70;;;;;;5242558;28;20052;-82
2021/10/18 01:19:54;;;;;;;5.70;4.00;;;23.20;59.90;;;;;;5230648;28;20043;-80
2021/10/18 01:22:28;;;;;;;6.85;4.28;;;23.20;60.60;;;;;;5215844;28;20044;-81
2021/10/18 01:25:05;;;;;;;10.05;4.40;;;23.20;59.90;;;;;;5231532;28;20044;-82
2021/10/18 01:27:37;;;;;;;8.80;4.47;;;23.20;60.00;;;;;;5226277;28;20056;-81
2021/10/18 01:30:10;;;;;;;5.57;3.83;;;23.20;59.90;;;;;;5227238;28;20049;-81
2021/10/18 01:32:43;;;;;;;8.55;4.00;;;23.20;60.00;;;;;;5230501;28;20514;-81
2021/10/18 01:35:16;;;;;;;7.60;4.43;;;23.20;60.00;;;;;;5210044;28;20057;-81
2021/10/18 01:37:51;;;;;;;10.98;4.18;;;23.20;60.00;;;;;;5209656;28;20048;-81
2021/10/18 01:40:26;;;;;;;6.57;4.47;;;23.20;60.00;;;;;;5228492;28;20040;-81
2021/10/18 01:42:58;;;;;;;17.08;3.95;;;23.20;60.00;;;;;;5224994;28;20051;-81
2021/10/18 01:45:31;;;;;;;12.30;4.50;;;23.20;59.90;;;;;;5241820;28;20366;-81
2021/10/18 01:48:04;;;;;;;7.28;3.47;;;23.10;59.80;;;;;;5228072;28;20440;-81
2021/10/18 01:50:36;;;;;;;8.40;4.47;;;23.20;59.90;;;;;;5227829;28;20048;-81
2021/10/18 01:53:09;;;;;;;5.43;3.97;;;23.10;59.80;;;;;;5208981;28;20043;-81
2021/10/18 01:55:41;;;;;;;5.07;4.07;;;23.10;59.70;;;;;;5226002;28;20416;-81
2021/10/18 01:58:14;;;;;;;6.65;3.90;;;23.10;59.80;;;;;;5219568;28;20419;-81
2021/10/18 02:00:47;;;;;;;9.07;4.38;;;23.10;59.70;;;;;;5227542;28;20048;-82
2021/10/18 02:03:19;;;;;;;4.97;3.67;;;23.10;59.70;;;;;;5223230;28;20045;-81
2021/10/18 02:05:52;;;;;;;5.57;3.72;;;23.10;59.70;;;;;;5213499;28;20325;-81
2021/10/18 02:08:25;;;;;;;5.82;4.22;;;23.10;59.70;;;;;;5207374;28;20482;-81
2021/10/18 02:10:57;;;;;;;6.10;3.60;;;23.10;59.60;;;;;;5218614;28;20048;-81
2021/10/18 02:13:30;;;;;;;7.57;4.00;;;23.10;59.60;;;;;;5229310;28;20037;-82
2021/10/18 02:16:03;;;;;;;6.30;3.80;;;23.10;59.60;;;;;;5226845;28;20059;-81
2021/10/18 02:18:35;;;;;;;5.38;3.67;;;23.10;59.60;;;;;;5225649;28;20059;-81
2021/10/18 02:21:08;;;;;;;4.13;3.33;;;23.10;59.60;;;;;;5199777;28;21029;-81
2021/10/18 02:23:40;;;;;;;7.70;4.27;;;23.10;59.60;;;;;;5213599;28;20119;-80
2021/10/18 02:26:13;;;;;;;4.97;3.60;;;23.10;59.60;;;;;;5219970;28;20437;-81
2021/10/18 02:28:46;;;;;;;6.13;4.10;;;23.10;59.50;;;;;;5225540;28;20056;-81
2021/10/18 02:31:20;;;;;;;4.25;3.65;;;23.10;59.50;;;;;;5226131;28;20667;-81
2021/10/18 02:33:53;;;;;;;5.38;3.92;;;23.00;59.50;;;;;;5238101;28;20048;-81
2021/10/18 02:36:25;;;;;;;4.57;3.85;;;23.10;59.50;;;;;;5225507;28;20438;-81
2021/10/18 02:38:58;;;;;;;4.95;3.72;;;23.10;59.50;;;;;;5203018;28;20214;-81
2021/10/18 02:41:32;;;;;;;4.82;3.60;;;23.10;59.50;;;;;;5227732;28;20056;-81
2021/10/18 02:44:04;;;;;;;4.53;3.22;;;23.00;59.40;;;;;;5223465;28;20048;-81
2021/10/18 02:46:38;;;;;;;4.35;3.60;;;23.10;59.50;;;;;;5226276;28;20084;-81
2021/10/18 02:49:10;;;;;;;3.42;3.13;;;23.10;59.60;;;;;;5229183;28;20417;-81
2021/10/18 02:51:43;;;;;;;5.53;3.55;;;23.00;59.40;;;;;;5233672;28;20052;-81
2021/10/18 02:54:16;;;;;;;4.23;3.53;;;23.00;59.40;;;;;;5226212;28;20516;-81
2021/10/18 02:56:48;;;;;;;5.03;4.00;;;23.00;59.40;;;;;;5229264;28;20045;-81
2021/10/18 02:59:21;;;;;;;3.90;3.42;;;23.00;59.30;;;;;;5237828;28;20052;-81
2021/10/18 03:01:56;;;;;;;4.38;3.58;;;23.00;59.40;;;;;;5241318;28;20067;-81
2021/10/18 03:04:29;;;;;;;7.90;3.75;;;23.00;59.40;;;;;;5227075;28;20040;-80
2021/10/18 03:07:01;;;;;;;5.00;3.30;;;23.00;59.30;;;;;;5212567;28;20045;-82
2021/10/18 03:09:34;;;;;;;3.60;3.30;;;23.00;59.30;;;;;;5220406;28;20040;-81
2021/10/18 03:12:06;;;;;;;6.45;3.33;;;23.00;59.30;;;;;;5224553;28;20544;-81
2021/10/18 03:14:39;;;;;;;4.43;3.40;;;23.00;59.30;;;;;;5225503;28;20045;-81
2021/10/18 03:17:11;;;;;;;4.47;3.37;;;23.00;59.30;;;;;;5224593;28;20048;-81
2021/10/18 03:19:44;;;;;;;5.43;3.60;;;23.00;59.30;;;;;;5237415;28;20409;-81
2021/10/18 03:22:17;;;;;;;5.20;3.65;;;23.00;59.30;;;;;;5226264;28;20204;-81
2021/10/18 03:24:49;;;;;;;3.95;3.65;;;23.00;59.30;;;;;;5226913;28;20758;-82
2021/10/18 03:27:22;;;;;;;4.30;3.30;;;23.00;59.30;;;;;;5226771;28;20051;-81
2021/10/18 03:29:54;;;;;;;4.97;3.60;;;23.00;59.30;;;;;;5226256;28;20059;-82
2021/10/18 03:32:27;;;;;;;4.35;3.15;;;23.00;59.30;;;;;;5204421;28;20636;-81
2021/10/18 03:34:59;;;;;;;4.28;3.40;;;23.00;59.30;;;;;;5220597;28;20454;-81
2021/10/18 03:37:32;;;;;;;3.90;3.30;;;23.00;59.30;;;;;;5217579;28;20049;-81
2021/10/18 03:40:06;;;;;;;3.78;3.25;;;23.00;59.30;;;;;;5223383;28;20045;-80
2021/10/18 03:42:39;;;;;;;3.55;3.22;;;23.00;59.30;;;;;;5233830;28;20048;-81
2021/10/18 03:45:13;;;;;;;5.28;3.10;;;23.00;59.30;;;;;;5221903;28;20049;-82
2021/10/18 03:47:45;;;;;;;3.80;3.40;;;23.00;59.30;;;;;;5221058;28;21161;-81
2021/10/18 03:50:18;;;;;;;3.58;3.28;;;23.00;59.30;;;;;;5220191;28;20297;-81
2021/10/18 03:52:50;;;;;;;3.27;2.97;;;23.00;59.30;;;;;;5222891;28;20036;-81
2021/10/18 03:55:23;;;;;;;3.20;2.90;;;22.90;59.20;;;;;;5206482;28;20048;-81
2021/10/18 03:57:55;;;;;;;3.38;3.05;;;22.90;59.20;;;;;;5220785;28;20056;-82
2021/10/18 04:00:30;;;;;;;4.40;3.55;;;22.90;59.20;;;;;;5214110;28;20036;-80
2021/10/18 04:03:02;;;;;;;5.70;3.22;;;22.90;59.20;;;;;;5220463;28;20040;-82
2021/10/18 04:05:35;;;;;;;3.35;3.05;;;22.90;59.20;;;;;;5225142;28;20049;-81
2021/10/18 04:08:10;;;;;;;3.38;3.05;;;22.90;59.20;;;;;;5223086;28;20048;-82
2021/10/18 04:10:43;;;;;;;3.30;2.80;;;22.90;59.20;;;;;;5222208;28;20608;-81
2021/10/18 04:13:16;;;;;;;3.47;3.17;;;22.90;59.20;;;;;;5221665;28;20048;-81
2021/10/18 04:15:48;;;;;;;6.43;3.75;;;22.90;59.20;;;;;;5237347;28;20055;-81
2021/10/18 04:18:21;;;;;;;3.90;3.42;;;22.90;59.20;;;;;;5208475;28;20987;-81
2021/10/18 04:20:55;;;;;;;3.33;2.72;;;22.90;59.20;;;;;;5195120;28;20045;-81
2021/10/18 04:23:28;;;;;;;4.60;2.85;;;22.90;59.10;;;;;;5209057;28;20497;-81
2021/10/18 04:26:00;;;;;;;;;;;22.90;59.10;;;;;;5214575;28;20048;-81
2021/10/18 04:28:33;;;;;;;3.38;3.08;;;22.90;59.10;;;;;;5191043;28;19992;-81
2021/10/18 04:31:05;;;;;;;4.65;3.08;;;22.90;59.20;;;;;;5214990;28;20059;-81
2021/10/18 04:33:38;;;;;;;3.28;2.83;;;22.90;59.10;;;;;;5216928;28;20477;-81
2021/10/18 04:36:10;;;;;;;3.03;2.75;;;22.90;59.10;;;;;;5197929;28;20116;-81
2021/10/18 04:38:43;;;;;;;4.50;3.17;;;22.90;59.10;;;;;;5216311;28;20071;-81
2021/10/18 04:41:16;;;;;;;3.30;3.00;;;22.90;59.00;;;;;;5210182;28;20512;-81
2021/10/18 04:43:49;;;;;;;4.03;2.92;;;23.00;59.10;;;;;;5218818;28;20488;-81
2021/10/18 04:46:21;;;;;;;3.92;3.03;;;23.00;59.10;;;;;;5220589;28;20049;-82
2021/10/18 04:48:54;;;;;;;7.35;3.35;;;23.00;59.10;;;;;;5225053;28;20568;-80
2021/10/18 04:51:26;;;;;;;3.20;2.63;;;23.00;59.00;;;;;;5221347;28;20056;-81
2021/10/18 04:54:01;;;;;;;4.80;2.80;;;23.00;59.00;;;;;;5224890;28;20410;-80
2021/10/18 04:56:33;;;;;;;4.67;2.90;;;23.10;59.00;;;;;;5219089;28;20070;-81
2021/10/18 04:59:06;;;;;;;12.02;3.15;;;23.10;59.10;;;;;;5247264;28;20431;-82
2021/10/18 05:01:38;;;;;;;13.80;3.35;;;23.10;59.10;;;;;;5242958;28;20397;-81
2021/10/18 05:04:11;;;;;;;10.83;3.50;;;23.10;59.30;;;;;;5223694;28;20056;-82
2021/10/18 05:06:44;;;;;;;11.90;3.15;;;23.10;59.30;;;;;;5228203;28;20297;-80
2021/10/18 05:09:16;;;;;;;11.97;3.47;;;23.10;59.30;;;;;;5221022;28;20044;-82
2021/10/18 05:11:49;;;;;;;16.20;3.47;;;23.10;59.30;;;;;;5230590;28;20409;-84
2021/10/18 05:14:22;;;;;;;17.20;3.25;;;23.10;59.30;;;;;;5234236;28;20056;-83
2021/10/18 05:16:55;;;;;;;15.38;3.47;;;23.20;59.30;;;;;;5249669;28;20044;-82
2021/10/18 05:19:28;;;;;;;13.57;3.47;;;23.10;59.20;;;;;;5226475;28;20409;-83
2021/10/18 05:22:00;;;;;;;15.57;3.78;;;23.20;59.30;;;;;;5233634;28;20049;-83
2021/10/18 05:24:33;;;;;;;8.60;3.50;;;23.20;59.30;;;;;;5249359;28;20041;-82
2021/10/18 05:27:05;;;;;;;9.18;3.35;;;23.20;59.30;;;;;;5213122;28;20049;-84
2021/10/18 05:29:38;;;;;;;16.70;3.70;;;23.10;59.20;;;;;;5213010;28;20056;-83
2021/10/18 05:32:10;;;;;;;14.07;3.30;;;23.20;59.20;;;;;;5219901;28;20051;-82
2021/10/18 05:34:43;;;;;;;8.25;3.20;;;23.20;59.20;;;;;;5225041;28;20060;-83
2021/10/18 05:37:15;;;;;;;15.77;3.58;;;23.20;59.20;;;;;;5218939;28;20041;-83
2021/10/18 05:39:47;;;;;;;9.40;2.97;;;23.20;59.20;;;;;;5244955;28;20029;-83
2021/10/18 05:42:20;;;;;;;9.82;3.17;;;23.20;59.20;;;;;;5232132;28;20421;-82
2021/10/18 05:44:52;;;;;;;6.10;2.90;;;23.20;59.80;;;;;;5236359;28;20044;-84
2021/10/18 05:47:25;;;;;;;7.20;3.45;;;23.20;59.20;;;;;;5235772;28;20569;-84
2021/10/18 05:49:59;;;;;;;6.15;2.90;;;23.20;59.20;;;;;;5232226;28;20433;-82
2021/10/18 05:52:32;;;;;;;6.82;3.40;;;23.20;59.20;;;;;;5234055;28;20055;-82
2021/10/18 05:55:05;;;;;;;8.97;2.90;;;23.20;59.10;;;;;;5233096;28;20041;-84
2021/10/18 05:57:54;;;;;;;7.88;3.13;;;23.20;59.10;;;;;;5233716;28;20056;-84
2021/10/18 06:00:28;;;;;;;6.72;2.72;;;23.20;59.10;;;;;;5234177;28;20040;-82
2021/10/18 06:03:01;;;;;;;9.93;3.58;;;23.30;59.20;;;;;;5190954;28;20048;-82
2021/10/18 06:05:45;;;;;;;9.80;2.85;;;23.30;59.10;;;;;;5222977;28;20037;-82
2021/10/18 06:08:38;;;;;;;6.22;2.90;;;23.30;59.10;;;;;;5206373;28;20523;-81
2021/10/18 06:11:11;;;;;;;10.73;2.95;;;23.30;59.20;;;;;;5209029;28;20052;-80
2021/10/18 06:13:44;;;;;;;7.38;3.20;;;23.30;59.10;;;;;;5205614;28;20063;-82
2021/10/18 06:16:16;;;;;;;6.88;3.10;;;23.20;58.90;;;;;;5223165;28;20044;-81
2021/10/18 06:18:49;;;;;;;7.70;3.03;;;23.30;58.70;;;;;;5229442;28;20605;-82
2021/10/18 06:21:24;;;;;;;6.85;3.08;;;23.20;59.20;;;;;;5230032;28;20041;-81
2021/10/18 06:23:56;;;;;;;6.20;3.42;;;23.20;58.50;;;;;;5231608;28;20044;-81
2021/10/18 06:26:30;;;;;;;7.10;3.20;;;23.20;58.40;;;;;;5223931;28;20047;-81
2021/10/18 06:29:03;;;;;;;5.53;3.40;;;23.20;58.30;;;;;;5213366;28;20052;-80
2021/10/18 06:31:35;;;;;;;4.57;3.05;;;23.30;58.40;;;;;;5226247;28;20501;-81
2021/10/18 06:34:08;;;;;;;5.80;3.83;;;23.20;58.10;;;;;;5225889;28;20481;-82
2021/10/18 06:36:40;;;;;;;5.82;3.00;;;23.20;58.10;;;;;;5223917;28;20072;-81
2021/10/18 06:39:13;;;;;;;5.45;3.15;;;23.20;58.00;;;;;;5232680;28;20048;-81
2021/10/18 06:41:46;;;;;;;4.43;3.08;;;23.20;58.00;;;;;;5231283;28;20060;-82
2021/10/18 06:44:18;;;;;;;7.77;3.13;;;23.20;57.90;;;;;;5229233;28;20481;-82
2021/10/18 06:46:50;;;;;;;6.30;3.03;;;23.20;57.80;;;;;;5232174;28;20552;-82
2021/10/18 06:49:24;;;;;;;5.57;3.05;;;23.30;57.80;;;;;;5233034;28;20041;-81
2021/10/18 06:51:58;;;;;;;;;;;23.20;57.80;;;;;;5228105;28;20052;-81
2021/10/18 06:54:39;;;;;;;7.05;2.88;;;23.20;57.70;;;;;;5225209;28;19931;-81
2021/10/18 06:57:11;;;;;;;7.47;3.08;;;23.20;57.90;;;;;;5230635;28;20048;-82
2021/10/18 06:59:44;;;;;;;5.45;3.03;;;23.20;57.70;;;;;;5235016;28;20059;-82
2021/10/18 07:02:17;;;;;;;3.83;3.10;;;23.20;57.70;;;;;;5232425;28;20413;-81
2021/10/18 07:04:49;;;;;;;4.55;3.03;;;23.20;57.60;;;;;;5229337;28;20067;-81
2021/10/18 07:07:22;;;;;;;4.28;3.13;;;23.20;57.60;;;;;;5232469;28;20049;-81
2021/10/18 07:10:00;;;;;;;4.88;3.50;;;23.20;57.50;;;;;;5233543;28;20044;-82
2021/10/18 07:12:35;;;;;;;5.45;2.70;;;23.20;57.50;;;;;;5232129;28;20041;-81
2021/10/18 07:15:08;;;;;;;10.30;3.40;;;23.20;57.50;;;;;;5214912;28;20040;-81
2021/10/18 07:17:40;;;;;;;5.88;3.00;;;23.20;57.50;;;;;;5233848;28;20425;-81
2021/10/18 07:20:13;;;;;;;8.70;3.30;;;23.20;57.40;;;;;;5238634;28;20295;-82
2021/10/18 07:22:48;;;;;;;3.77;2.93;;;23.20;57.40;;;;;;5235554;28;20049;-82
2021/10/18 07:25:20;;;;;;;5.95;3.78;;;23.20;57.40;;;;;;5224852;28;20815;-82
2021/10/18 07:27:53;;;;;;;5.27;3.40;;;23.30;57.40;;;;;;5230373;28;20040;-81
2021/10/18 07:30:26;;;;;;;5.38;3.53;;;23.20;57.30;;;;;;5236376;28;20045;-81
2021/10/18 07:32:58;;;;;;;4.68;2.85;;;23.20;57.30;;;;;;5246756;28;20052;-81
2021/10/18 07:35:35;;;;;;;4.77;3.73;;;23.20;57.30;;;;;;5230495;28;20048;-81
2021/10/18 07:38:09;;;;;;;8.23;3.55;;;23.20;57.30;;;;;;5234371;28;20294;-81
2021/10/18 07:40:42;;;;;;;3.72;3.08;;;23.30;57.30;;;;;;5227519;28;20048;-81
2021/10/18 07:43:14;;;;;;;8.43;3.42;;;23.20;57.20;;;;;;5222526;28;20052;-81
2021/10/18 07:45:47;;;;;;;4.05;2.92;;;23.20;57.20;;;;;;5223333;28;20051;-81
2021/10/18 07:48:20;;;;;;;7.00;3.03;;;23.20;57.20;;;;;;5234832;28;20036;-82
2021/10/18 07:50:53;;;;;;;6.40;3.65;;;23.20;57.30;;;;;;5227965;28;20493;-82
2021/10/18 07:53:25;;;;;;;6.65;3.25;;;23.20;57.20;;;;;;5222192;28;20595;-82
2021/10/18 07:55:58;;;;;;;5.60;3.00;;;23.20;57.30;;;;;;5220611;28;20056;-81
2021/10/18 07:58:30;;;;;;;8.13;3.63;;;23.30;57.30;;;;;;5212899;28;20493;-82
2021/10/18 08:01:03;;;;;;;7.55;3.20;;;23.20;57.20;;;;;;5213691;28;20051;-81
2021/10/18 08:03:35;;;;;;;5.90;3.57;;;23.20;57.20;;;;;;5222210;28;20378;-81
2021/10/18 08:06:09;;;;;;;4.78;2.90;;;23.20;57.20;;;;;;5214928;28;20043;-82
2021/10/18 08:08:50;;;;;;;;;;;23.20;57.20;;;;;;5213444;28;20514;-82
2021/10/18 08:11:23;;;;;;;4.88;3.55;;;23.20;57.30;;;;;;5209104;28;19924;-81
2021/10/18 08:13:56;;;;;;;5.40;3.08;;;23.20;57.30;;;;;;5203436;28;20690;-82
2021/10/18 08:16:28;;;;;;;5.97;3.53;;;23.20;57.30;;;;;;5207893;28;20045;-81
2021/10/18 08:19:01;;;;;;;6.03;3.20;;;23.20;57.30;;;;;;5208402;28;20063;-81
2021/10/18 08:21:34;;;;;;;6.15;3.35;;;23.20;57.30;;;;;;5188495;28;20047;-81
2021/10/18 08:24:07;;;;;;;7.40;3.42;;;23.20;57.30;;;;;;5214554;28;20548;-82
2021/10/18 08:26:40;;;;;;;5.53;3.03;;;23.20;57.30;;;;;;5223060;28;20049;-82
2021/10/18 08:29:12;;;;;;;6.32;3.28;;;23.20;57.30;;;;;;5222740;28;20048;-82
2021/10/18 08:31:45;;;;;;;5.95;3.28;;;23.20;57.30;;;;;;5220817;28;20773;-82
2021/10/18 08:34:18;;;;;;;4.97;3.30;;;23.20;57.40;;;;;;5229667;28;20051;-82
2021/10/18 08:36:50;;;;;;;5.95;3.50;;;23.30;57.40;;;;;;5211475;28;20048;-81
2021/10/18 08:42:17;;;;;;;4.45;3.20;;;23.30;57.40;;;;;;5217366;28;20735;-82
2021/10/18 08:44:49;;;;;;;6.95;3.45;;;23.30;57.40;;;;;;5207593;28;20052;-82
2021/10/18 08:47:26;;;;;;;7.70;3.20;;;23.30;57.50;;;;;;5220530;28;20051;-81
2021/10/18 08:49:58;;;;;;;5.25;3.08;;;23.30;57.50;;;;;;5210596;28;20044;-81
2021/10/18 08:52:32;;;;;;;8.10;3.78;;;23.30;57.50;;;;;;5210023;28;20630;-81
2021/10/18 08:55:05;;;;;;;6.20;3.28;;;23.30;57.60;;;;;;5222724;28;20693;-82
2021/10/18 08:57:38;;;;;;;;;;;23.30;57.60;;;;;;5225877;28;20651;-82
2021/10/18 09:00:35;;;;;;;5.38;3.30;;;23.30;57.70;;;;;;5223593;28;20396;-82
2021/10/18 09:03:25;;;;;;;4.85;3.53;;;23.20;57.70;;;;;;5220166;28;20072;-82
2021/10/18 09:06:21;;;;;;;7.47;3.55;;;23.30;57.70;;;;;;5226543;28;20049;-81
2021/10/18 09:08:56;;;;;;;5.57;3.60;;;23.30;57.70;;;;;;5221042;28;20358;-82
2021/10/18 09:11:29;;;;;;;5.97;3.60;;;23.30;57.80;;;;;;5217264;28;20045;-81
2021/10/18 09:14:02;;;;;;;4.45;3.50;;;23.30;57.80;;;;;;5219700;28;20560;-82
2021/10/18 09:16:42;;;;;;;9.32;2.88;;;23.30;57.90;;;;;;5212636;28;20076;-82
2021/10/18 09:19:25;;;;;;;7.65;3.25;;;23.30;57.80;;;;;;5195246;28;20060;-81
2021/10/18 09:22:00;;;;;;;7.40;3.38;;;23.30;57.90;;;;;;5201517;28;20067;-81
2021/10/18 09:24:32;;;;;;;5.63;3.38;;;23.30;57.90;;;;;;5214693;28;20218;-81
2021/10/18 09:27:06;;;;;;;6.80;3.20;;;23.30;57.90;;;;;;5215140;28;20045;-81
2021/10/18 09:29:45;;;;;;;5.60;3.15;;;23.30;57.90;;;;;;5226859;28;20470;-80
2021/10/18 09:32:20;;;;;;;9.75;3.50;;;23.30;57.90;;;;;;5219415;28;20049;-81
2021/10/18 09:35:09;;;;;;;8.75;3.30;;;23.30;58.00;;;;;;5232642;28;20059;-82
2021/10/18 09:37:43;;;;;;;5.45;3.30;;;23.30;58.00;;;;;;5221575;28;20060;-81
2021/10/18 09:40:33;;;;;;;7.28;3.40;;;23.30;57.90;;;;;;5229236;28;20052;-81
2021/10/18 09:43:14;;;;;;;5.47;3.80;;;23.40;58.00;;;;;;5221762;28;20044;-80
2021/10/18 09:46:11;;;;;;;6.07;3.53;;;23.30;58.00;;;;;;5237898;28;20044;-82
2021/10/18 10:53:09;;;;;;;9.10;4.25;;;23.50;58.30;;;;;;5223733;28;20064;-81
2021/10/18 10:55:43;;;;;;;5.65;3.65;;;23.50;58.30;;;;;;5231249;28;20656;-81
2021/10/18 10:58:37;;;;;;;7.93;3.30;;;23.50;58.30;;;;;;5227114;28;20461;-81
2021/10/18 11:01:39;;;;;;;4.45;3.40;;;23.50;58.20;;;;;;5232499;28;20555;-81
2021/10/18 11:04:30;;;;;;;7.35;3.63;;;23.50;58.20;;;;;;5231463;28;20490;-81
2021/10/18 11:07:40;;;;;;;7.28;3.65;;;23.50;58.20;;;;;;5207591;28;20390;-80
2021/10/18 11:10:21;;;;;;;4.75;3.35;;;23.60;58.20;;;;;;5233471;28;20505;-80
2021/10/18 11:13:06;;;;;;;8.70;3.85;;;23.60;58.10;;;;;;5227515;28;20055;-80
2021/10/18 11:15:39;;;;;;;6.57;3.30;;;23.60;58.10;;;;;;5231357;28;20060;-80
2021/10/18 11:18:22;;;;;;;8.20;3.47;;;23.70;58.00;;;;;;5203084;28;20044;-81
2021/10/18 11:20:55;;;;;;;7.05;3.72;;;23.80;58.10;;;;;;5219787;28;20048;-81
2021/10/18 11:23:27;;;;;;;6.50;3.88;;;23.80;57.90;;;;;;5219134;28;20045;-81
2021/10/18 11:26:00;;;;;;;8.27;3.80;;;23.90;57.90;;;;;;5219676;28;20040;-81
2021/10/18 11:28:32;;;;;;;8.52;3.92;;;24.00;57.70;;;;;;5219233;28;20044;-81
2021/10/18 11:31:10;;;;;;;8.13;3.90;;;24.00;57.60;;;;;;5216239;28;20037;-82
2021/10/18 11:33:59;;;;;;;8.55;3.92;;;24.10;57.50;;;;;;5213096;28;20045;-81
2021/10/18 11:36:32;;;;;;;4.65;3.30;;;24.20;57.40;;;;;;5219225;28;20044;-81
2021/10/18 11:39:10;;;;;;;8.55;3.40;;;24.20;57.20;;;;;;5220222;28;20052;-81
2021/10/18 11:41:58;;;;;;;5.30;3.67;;;24.40;57.20;;;;;;5222660;28;20386;-81
2021/10/18 11:44:54;;;;;;;6.05;3.60;;;24.40;57.10;;;;;;5214042;28;20610;-81
2021/10/18 11:47:27;;;;;;;6.95;4.00;;;24.50;57.10;;;;;;5232066;28;20405;-80
2021/10/18 11:50:08;;;;;;;6.43;3.40;;;24.50;57.00;;;;;;5228513;28;20057;-80
2021/10/18 11:52:43;;;;;;;8.68;3.60;;;24.50;56.90;;;;;;5213681;28;20053;-81
2021/10/18 11:55:22;;;;;;;5.82;3.78;;;24.50;56.90;;;;;;5217481;28;20386;-80
2021/10/18 11:57:57;;;;;;;4.78;3.63;;;24.60;56.90;;;;;;5211510;28;20374;-81
2021/10/18 12:00:32;;;;;;;7.32;3.60;;;24.60;57.00;;;;;;5202086;28;20513;-81
2021/10/18 12:03:05;;;;;;;6.03;3.80;;;24.60;57.10;;;;;;5204415;28;20048;-80
2021/10/18 12:05:51;;;;;;;7.65;4.00;;;24.60;57.10;;;;;;5210647;28;20072;-81
2021/10/18 12:08:27;;;;;;;;;;;24.60;57.20;;;;;;5222166;28;20084;-81
2021/10/18 12:11:02;;;;;;;7.45;3.70;;;24.60;57.40;;;;;;5219737;28;19921;-81
2021/10/18 12:13:42;;;;;;;9.15;3.72;;;24.60;57.50;;;;;;5212620;28;20501;-81
2021/10/18 12:16:20;;;;;;;14.90;4.00;;;24.60;57.60;;;;;;5205619;28;20044;-83
2021/10/18 12:19:00;;;;;;;10.82;4.30;;;24.60;57.80;;;;;;5216451;28;20177;-83
2021/10/18 12:21:39;;;;;;;6.40;4.47;;;24.60;57.90;;;;;;5196218;28;20049;-83
2021/10/18 12:24:15;;;;;;;146.07;48.30;;;24.70;58.00;;;;;;5193369;28;20036;-84
2021/10/18 12:26:54;;;;;;;208.30;72.38;;;24.80;58.10;;;;;;5182973;28;20079;-81
2021/10/18 12:29:26;;;;;;;137.05;43.38;;;24.80;58.10;;;;;;5203942;28;20524;-83
2021/10/18 12:32:06;;;;;;;124.00;42.00;;;24.80;58.00;;;;;;5185536;28;20044;-82
2021/10/18 12:34:39;;;;;;;124.07;43.60;;;24.90;58.00;;;;;;5181834;28;20507;-81
2021/10/18 12:37:13;;;;;;;122.00;39.65;;;25.00;58.00;;;;;;5175264;28;20060;-81
2021/10/18 12:40:01;;;;;;;128.20;40.25;;;25.10;58.00;;;;;;5188357;28;20592;-84
2021/10/18 12:42:33;;;;;;;117.53;38.42;;;25.20;58.00;;;;;;5176217;28;20052;-82
2021/10/18 12:45:15;;;;;;;111.80;39.23;;;25.30;57.90;;;;;;5194716;28;20052;-81
2021/10/18 12:47:54;;;;;;;123.28;43.70;;;25.30;57.80;;;;;;5182579;28;20506;-83
2021/10/18 12:50:29;;;;;;;134.13;49.15;;;25.40;57.70;;;;;;5198067;28;20052;-83
2021/10/18 12:53:05;;;;;;;150.95;51.65;;;25.50;57.70;;;;;;5219550;28;20048;-83
2021/10/18 12:55:39;;;;;;;198.98;71.03;;;25.60;57.70;;;;;;5205115;28;20060;-82
2021/10/18 12:58:21;;;;;;;202.90;72.88;;;25.60;57.60;;;;;;5205734;28;20321;-81
2021/10/18 13:00:55;;;;;;;209.43;81.80;;;25.70;57.50;;;;;;5191333;28;20056;-83
2021/10/18 13:03:34;;;;;;;226.05;90.15;;;25.80;57.50;;;;;;5208474;28;20613;-82
2021/10/18 13:06:14;;;;;;;220.73;85.97;;;25.90;57.40;;;;;;5188552;28;20059;-82
2021/10/18 13:08:46;;;;;;;262.35;103.90;;;26.00;57.40;;;;;;5202069;28;20067;-84
2021/10/18 13:11:19;;;;;;;299.17;113.17;;;26.00;57.30;;;;;;5185419;28;20524;-84
2021/10/18 13:13:51;;;;;;;295.33;112.45;;;26.10;57.20;;;;;;5210737;28;20298;-84
2021/10/18 13:16:24;;;;;;;344.45;128.95;;;26.20;57.30;;;;;;5192663;28;20349;-81
2021/10/18 13:18:57;;;;;;;320.20;121.60;;;26.30;57.20;;;;;;5205066;28;20046;-83
2021/10/18 13:21:30;;;;;;;306.40;121.57;;;26.40;57.10;;;;;;5221529;28;20041;-84
2021/10/18 13:24:04;;;;;;;307.17;117.97;;;26.40;57.00;;;;;;5209285;28;20045;-83
2021/10/18 13:26:37;;;;;;;314.20;120.60;;;26.50;57.00;;;;;;5194352;28;20387;-82
2021/10/18 13:29:10;;;;;;;298.95;119.47;;;26.60;57.00;;;;;;5211995;28;20048;-82
2021/10/18 13:31:42;;;;;;;293.15;115.50;;;26.70;56.90;;;;;;5233374;28;20449;-82
2021/10/18 13:34:15;;;;;;;298.83;113.23;;;26.80;56.90;;;;;;5204497;28;20048;-81
2021/10/18 13:36:48;;;;;;;299.10;114.15;;;26.80;56.70;;;;;;5230699;28;20051;-82
2021/10/18 13:39:20;;;;;;;256.60;98.40;;;26.80;56.60;;;;;;5221650;28;20049;-81
2021/10/18 13:42:03;;;;;;;259.55;99.32;;;26.90;56.10;;;;;;5212025;28;20270;-82
2021/10/18 13:44:38;;;;;;;237.73;98.35;;;26.90;56.10;;;;;;5207941;28;20048;-81
2021/10/18 13:47:10;;;;;;;254.13;95.65;;;27.00;56.10;;;;;;5215111;28;20438;-81
2021/10/18 13:49:43;;;;;;;244.80;94.87;;;27.00;56.10;;;;;;5213422;28;20053;-81
2021/10/18 13:52:17;;;;;;;248.40;95.32;;;27.10;56.20;;;;;;5212768;28;20063;-82
2021/10/18 13:54:50;;;;;;;233.73;90.68;;;27.10;56.10;;;;;;5225672;28;20055;-81
2021/10/18 13:57:25;;;;;;;242.25;94.57;;;27.10;56.00;;;;;;5217139;28;20052;-81
2021/10/18 13:59:57;;;;;;;228.32;92.13;;;27.10;56.60;;;;;;5228714;28;20048;-81
2021/10/18 14:02:30;;;;;;;218.32;85.38;;;27.10;56.00;;;;;;5219315;28;20049;-80
2021/10/18 14:05:03;;;;;;;211.63;84.25;;;27.10;55.90;;;;;;5221365;28;20041;-81
2021/10/18 14:07:36;;;;;;;208.10;83.70;;;27.10;55.80;;;;;;5220607;28;20044;-81
2021/10/18 14:10:10;;;;;;;209.87;82.27;;;27.10;55.90;;;;;;5215216;28;20352;-81
2021/10/18 14:12:44;;;;;;;199.25;79.43;;;27.10;55.90;;;;;;5215321;28;20045;-81
2021/10/18 14:15:17;;;;;;;200.50;80.03;;;27.10;55.90;;;;;;5191265;28;20103;-81
2021/10/18 14:17:49;;;;;;;195.77;77.27;;;27.10;56.00;;;;;;5215863;28;20047;-81
2021/10/18 14:20:23;;;;;;;193.23;77.10;;;27.10;56.10;;;;;;5215655;28;20044;-81
2021/10/18 14:22:57;;;;;;;184.98;76.07;;;27.00;56.10;;;;;;5208598;28;20290;-82
2021/10/18 14:25:31;;;;;;;179.82;71.97;;;27.10;56.30;;;;;;5198409;28;20068;-82
2021/10/18 14:28:05;;;;;;;155.43;59.58;;;26.90;56.10;;;;;;5196233;28;20041;-82